sensor_id;sensor_type;location;lat;lon;timestamp;pressure;altitude;pressure_sealevel;temperature;humidity
50380;BME280;37474;59.468;18.040;2023-11-21T00:00:38;101790.81;;;-0.87;100.00
50380;BME280;37474;59.468;18.040;2023-11-21T00:03:06;101791.75;;;-0.81;100.00
50380;BME280;37474;59.468;18.040;2023-11-21T00:05:35;101796.00;;;-0.78;100.00
50380;BME280;37474;59.468;18.040;2023-11-21T00:08:04;101794.28;;;-0.82;100.00
50380;BME280;37474;59.468;18.040;2023-11-21T00:10:33;101784.06;;;-0.84;100.00
50380;BME280;37474;59.468;18.040;2023-11-21T00:13:01;101803.69;;;-0.76;100.00
50380;BME280;37474;59.468;18.040;2023-11-21T00:15:29;101802.88;;;-0.72;100.00
50380;BME280;37474;59.468;18.040;2023-11-21T00:17:57;101790.00;;;-0.85;100.00
50380;BME280;37474;59.468;18.040;2023-11-21T00:20:26;101797.75;;;-0.77;100.00
50380;BME280;37474;59.468;18.040;2023-11-21T00:22:54;101811.34;;;-0.75;100.00
50380;BME280;37474;59.468;18.040;2023-11-21T00:25:23;101799.34;;;-0.84;100.00
50380;BME280;37474;59.468;18.040;2023-11-21T00:27:51;101810.53;;;-0.71;100.00
50380;BME280;37474;59.468;18.040;2023-11-21T00:30:20;101815.66;;;-0.69;100.00
50380;BME280;37474;59.468;18.040;2023-11-21T00:32:49;101813.88;;;-0.76;100.00
50380;BME280;37474;59.468;18.040;2023-11-21T00:35:17;101817.34;;;-0.71;100.00
50380;BME280;37474;59.468;18.040;2023-11-21T00:37:45;101825.03;;;-0.65;100.00
50380;BME280;37474;59.468;18.040;2023-11-21T00:40:18;101813.03;;;-0.77;100.00
50380;BME280;37474;59.468;18.040;2023-11-21T00:42:49;101821.59;;;-0.70;100.00
50380;BME280;37474;59.468;18.040;2023-11-21T00:45:17;101823.22;;;-0.75;100.00
50380;BME280;37474;59.468;18.040;2023-11-21T00:47:46;101817.34;;;-0.71;100.00
50380;BME280;37474;59.468;18.040;2023-11-21T00:50:14;101821.59;;;-0.70;100.00
50380;BME280;37474;59.468;18.040;2023-11-21T00:52:42;101816.47;;;-0.72;100.00
50380;BME280;37474;59.468;18.040;2023-11-21T00:55:12;101823.31;;;-0.68;100.00
50380;BME280;37474;59.468;18.040;2023-11-21T00:57:40;101824.91;;;-0.74;100.00
50380;BME280;37474;59.468;18.040;2023-11-21T01:00:10;101824.06;;;-0.73;100.00
50380;BME280;37474;59.468;18.040;2023-11-21T01:02:40;101838.56;;;-0.69;100.00
50380;BME280;37474;59.468;18.040;2023-11-21T01:05:10;101833.47;;;-0.68;100.00
50380;BME280;37474;59.468;18.040;2023-11-21T01:07:38;101842.94;;;-0.59;100.00
50380;BME280;37474;59.468;18.040;2023-11-21T01:10:07;101832.69;;;-0.64;100.00
50380;BME280;37474;59.468;18.040;2023-11-21T01:12:37;101833.59;;;-0.60;100.00
50380;BME280;37474;59.468;18.040;2023-11-21T01:15:06;101838.69;;;-0.59;100.00
50380;BME280;37474;59.468;18.040;2023-11-21T01:17:37;101847.97;;;-0.62;100.00
50380;BME280;37474;59.468;18.040;2023-11-21T01:20:06;101844.63;;;-0.60;100.00
50380;BME280;37474;59.468;18.040;2023-11-21T01:22:39;101839.41;;;-0.70;100.00
50380;BME280;37474;59.468;18.040;2023-11-21T01:25:08;101851.44;;;-0.57;100.00
50380;BME280;37474;59.468;18.040;2023-11-21T01:27:37;101847.97;;;-0.62;100.00
50380;BME280;37474;59.468;18.040;2023-11-21T01:30:09;101854.84;;;-0.58;100.00
50380;BME280;37474;59.468;18.040;2023-11-21T01:32:39;101854.84;;;-0.58;100.00
50380;BME280;37474;59.468;18.040;2023-11-21T01:35:08;101857.31;;;-0.64;100.00
50380;BME280;37474;59.468;18.040;2023-11-21T01:37:37;101860.72;;;-0.62;100.00
50380;BME280;37474;59.468;18.040;2023-11-21T01:40:06;101869.28;;;-0.57;100.00
50380;BME280;37474;59.468;18.040;2023-11-21T01:42:41;101861.53;;;-0.66;100.00
50380;BME280;37474;59.468;18.040;2023-11-21T01:45:10;101864.16;;;-0.60;100.00
50380;BME280;37474;59.468;18.040;2023-11-21T01:47:42;101864.09;;;-0.66;100.00
50380;BME280;37474;59.468;18.040;2023-11-21T01:50:15;101865.75;;;-0.68;100.00
50380;BME280;37474;59.468;18.040;2023-11-21T01:52:47;101879.47;;;-0.59;100.00
50380;BME280;37474;59.468;18.040;2023-11-21T01:55:17;101874.28;;;-0.65;100.00
50380;BME280;37474;59.468;18.040;2023-11-21T01:57:54;101877.59;;;-0.70;100.00
50380;BME280;37474;59.468;18.040;2023-11-21T02:00:23;101875.91;;;-0.68;100.00
50380;BME280;37474;59.468;18.040;2023-11-21T02:02:54;101883.63;;;-0.62;100.00
50380;BME280;37474;59.468;18.040;2023-11-21T02:05:23;101890.44;;;-0.63;100.00
50380;BME280;37474;59.468;18.040;2023-11-21T02:07:53;101871.59;;;-0.74;100.00
50380;BME280;37474;59.468;18.040;2023-11-21T02:10:21;101888.72;;;-0.62;100.00
50380;BME280;37474;59.468;18.040;2023-11-21T02:12:51;101887.91;;;-0.61;100.00
50380;BME280;37474;59.468;18.040;2023-11-21T02:15:19;101882.81;;;-0.61;100.00
50380;BME280;37474;59.468;18.040;2023-11-21T02:17:48;101877.69;;;-0.64;100.00
50380;BME280;37474;59.468;18.040;2023-11-21T02:20:21;101878.47;;;-0.68;100.00
50380;BME280;37474;59.468;18.040;2023-11-21T02:22:54;101876.72;;;-0.72;100.00
50380;BME280;37474;59.468;18.040;2023-11-21T02:25:25;101869.91;;;-0.73;100.00
50380;BME280;37474;59.468;18.040;2023-11-21T02:27:56;101892.97;;;-0.63;100.00
50380;BME280;37474;59.468;18.040;2023-11-21T02:30:25;101883.56;;;-0.68;100.00
50380;BME280;37474;59.468;18.040;2023-11-21T02:32:55;101898.03;;;-0.66;100.00
50380;BME280;37474;59.468;18.040;2023-11-21T02:35:24;101904.06;;;-0.59;100.00
50380;BME280;37474;59.468;18.040;2023-11-21T02:37:54;101914.25;;;-0.59;100.00
50380;BME280;37474;59.468;18.040;2023-11-21T02:40:22;101908.38;;;-0.55;100.00
50380;BME280;37474;59.468;18.040;2023-11-21T02:42:52;101894.66;;;-0.65;100.00
50380;BME280;37474;59.468;18.040;2023-11-21T02:45:20;101900.63;;;-0.63;100.00
50380;BME280;37474;59.468;18.040;2023-11-21T02:47:49;101899.00;;;-0.56;100.00
50380;BME280;37474;59.468;18.040;2023-11-21T02:50:17;101915.25;;;-0.48;100.00
50380;BME280;37474;59.468;18.040;2023-11-21T02:52:47;101912.72;;;-0.48;100.00
50380;BME280;37474;59.468;18.040;2023-11-21T02:55:16;101906.72;;;-0.51;100.00
50380;BME280;37474;59.468;18.040;2023-11-21T02:57:45;101913.56;;;-0.46;100.00
50380;BME280;37474;59.468;18.040;2023-11-21T03:00:13;101919.59;;;-0.41;100.00
50380;BME280;37474;59.468;18.040;2023-11-21T03:02:42;101920.44;;;-0.42;100.00
50380;BME280;37474;59.468;18.040;2023-11-21T03:05:11;101917.78;;;-0.49;100.00
50380;BME280;37474;59.468;18.040;2023-11-21T03:07:39;101923.75;;;-0.46;100.00
50380;BME280;37474;59.468;18.040;2023-11-21T03:10:11;101925.47;;;-0.45;100.00
50380;BME280;37474;59.468;18.040;2023-11-21T03:12:41;101931.47;;;-0.40;100.00
50380;BME280;37474;59.468;18.040;2023-11-21T03:15:11;101932.34;;;-0.39;100.00
50380;BME280;37474;59.468;18.040;2023-11-21T03:17:40;101940.91;;;-0.34;100.00
50380;BME280;37474;59.468;18.040;2023-11-21T03:20:09;101927.22;;;-0.41;100.00
50380;BME280;37474;59.468;18.040;2023-11-21T03:22:40;101941.78;;;-0.31;100.00
50380;BME280;37474;59.468;18.040;2023-11-21T03:25:09;101952.06;;;-0.26;100.00
50380;BME280;37474;59.468;18.040;2023-11-21T03:27:38;101939.19;;;-0.37;100.00
50380;BME280;37474;59.468;18.040;2023-11-21T03:30:09;101955.41;;;-0.29;100.00
50380;BME280;37474;59.468;18.040;2023-11-21T03:32:37;101935.84;;;-0.33;100.00
50380;BME280;37474;59.468;18.040;2023-11-21T03:35:06;101960.56;;;-0.22;100.00
50380;BME280;37474;59.468;18.040;2023-11-21T03:37:34;101950.31;;;-0.29;100.00
50380;BME280;37474;59.468;18.040;2023-11-21T03:40:05;101958.03;;;-0.22;100.00
50380;BME280;37474;59.468;18.040;2023-11-21T03:42:35;101950.28;;;-0.30;100.00
50380;BME280;37474;59.468;18.040;2023-11-21T03:45:03;101955.53;;;-0.19;100.00
50380;BME280;37474;59.468;18.040;2023-11-21T03:47:33;101959.69;;;-0.26;100.00
50380;BME280;37474;59.468;18.040;2023-11-21T03:50:01;101967.44;;;-0.18;100.00
50380;BME280;37474;59.468;18.040;2023-11-21T03:52:30;101960.63;;;-0.19;100.00
50380;BME280;37474;59.468;18.040;2023-11-21T03:54:58;101977.63;;;-0.18;100.00
50380;BME280;37474;59.468;18.040;2023-11-21T03:57:26;101972.44;;;-0.28;100.00
50380;BME280;37474;59.468;18.040;2023-11-21T03:59:54;101969.91;;;-0.26;100.00
50380;BME280;37474;59.468;18.040;2023-11-21T04:02:22;101981.00;;;-0.19;100.00
50380;BME280;37474;59.468;18.040;2023-11-21T04:04:53;101982.72;;;-0.18;100.00
50380;BME280;37474;59.468;18.040;2023-11-21T04:07:21;101989.50;;;-0.20;100.00
50380;BME280;37474;59.468;18.040;2023-11-21T04:09:49;101987.81;;;-0.21;100.00
50380;BME280;37474;59.468;18.040;2023-11-21T04:12:17;101987.03;;;-0.16;100.00
50380;BME280;37474;59.468;18.040;2023-11-21T04:14:45;101988.66;;;-0.21;100.00
50380;BME280;37474;59.468;18.040;2023-11-21T04:17:13;101988.66;;;-0.19;100.00
50380;BME280;37474;59.468;18.040;2023-11-21T04:19:41;101998.88;;;-0.18;100.00
50380;BME280;37474;59.468;18.040;2023-11-21T04:22:11;102003.88;;;-0.24;100.00
50380;BME280;37474;59.468;18.040;2023-11-21T04:24:39;102003.13;;;-0.18;100.00
50380;BME280;37474;59.468;18.040;2023-11-21T04:27:07;101996.22;;;-0.27;100.00
50380;BME280;37474;59.468;18.040;2023-11-21T04:29:35;102006.56;;;-0.15;100.00
50380;BME280;37474;59.468;18.040;2023-11-21T04:32:04;102003.03;;;-0.26;100.00
50380;BME280;37474;59.468;18.040;2023-11-21T04:34:32;102005.56;;;-0.26;100.00
50380;BME280;37474;59.468;18.040;2023-11-21T04:37:03;102016.75;;;-0.16;100.00
50380;BME280;37474;59.468;18.040;2023-11-21T04:39:34;102009.81;;;-0.27;100.00
50380;BME280;37474;59.468;18.040;2023-11-21T04:42:02;102016.69;;;-0.21;100.00
50380;BME280;37474;59.468;18.040;2023-11-21T04:44:31;102018.41;;;-0.17;100.00
50380;BME280;37474;59.468;18.040;2023-11-21T04:46:59;102023.50;;;-0.18;100.00
50380;BME280;37474;59.468;18.040;2023-11-21T04:49:27;102031.97;;;-0.21;100.00
50380;BME280;37474;59.468;18.040;2023-11-21T04:51:55;102026.06;;;-0.18;100.00
50380;BME280;37474;59.468;18.040;2023-11-21T04:54:23;102038.88;;;-0.12;100.00
50380;BME280;37474;59.468;18.040;2023-11-21T04:56:55;102026.84;;;-0.22;100.00
50380;BME280;37474;59.468;18.040;2023-11-21T04:59:24;102034.53;;;-0.19;100.00
50380;BME280;37474;59.468;18.040;2023-11-21T05:01:53;102037.16;;;-0.13;100.00
50380;BME280;37474;59.468;18.040;2023-11-21T05:04:22;102032.84;;;-0.19;100.00
50380;BME280;37474;59.468;18.040;2023-11-21T05:06:50;102040.41;;;-0.23;100.00
50380;BME280;37474;59.468;18.040;2023-11-21T05:09:18;102050.78;;;-0.11;100.00
50380;BME280;37474;59.468;18.040;2023-11-21T05:11:46;102051.59;;;-0.15;100.00
50380;BME280;37474;59.468;18.040;2023-11-21T05:14:15;102053.38;;;-0.10;100.00
50380;BME280;37474;59.468;18.040;2023-11-21T05:16:45;102055.00;;;-0.13;100.00
50380;BME280;37474;59.468;18.040;2023-11-21T05:19:14;102057.63;;;-0.09;100.00
50380;BME280;37474;59.468;18.040;2023-11-21T05:21:42;102063.59;;;-0.07;100.00
50380;BME280;37474;59.468;18.040;2023-11-21T05:24:10;102055.84;;;-0.14;100.00
50380;BME280;37474;59.468;18.040;2023-11-21T05:26:38;102069.53;;;-0.08;100.00
50380;BME280;37474;59.468;18.040;2023-11-21T05:29:06;102073.75;;;-0.10;100.00
50380;BME280;37474;59.468;18.040;2023-11-21T05:31:36;102066.00;;;-0.17;100.00
50380;BME280;37474;59.468;18.040;2023-11-21T05:34:05;102072.00;;;-0.12;100.00
50380;BME280;37474;59.468;18.040;2023-11-21T05:36:33;102066.81;;;-0.21;100.00
50380;BME280;37474;59.468;18.040;2023-11-21T05:39:01;102075.41;;;-0.13;100.00
50380;BME280;37474;59.468;18.040;2023-11-21T05:41:30;102077.19;;;-0.08;100.00
50380;BME280;37474;59.468;18.040;2023-11-21T05:43:59;102068.59;;;-0.16;100.00
50380;BME280;37474;59.468;18.040;2023-11-21T05:46:28;102059.97;;;-0.22;100.00
50380;BME280;37474;59.468;18.040;2023-11-21T05:48:57;102081.44;;;-0.08;100.00
50380;BME280;37474;59.468;18.040;2023-11-21T05:51:25;102087.28;;;-0.15;100.00
50380;BME280;37474;59.468;18.040;2023-11-21T05:53:53;102088.16;;;-0.13;100.00
50380;BME280;37474;59.468;18.040;2023-11-21T05:56:21;102092.50;;;-0.06;100.00
50380;BME280;37474;59.468;18.040;2023-11-21T05:58:49;102087.38;;;-0.09;100.00
50380;BME280;37474;59.468;18.040;2023-11-21T06:01:18;102100.94;;;-0.10;100.00
50380;BME280;37474;59.468;18.040;2023-11-21T06:03:46;102104.34;;;-0.10;100.00
50380;BME280;37474;59.468;18.040;2023-11-21T06:06:16;102116.28;;;-0.07;100.00
50380;BME280;37474;59.468;18.040;2023-11-21T06:08:46;102106.91;;;-0.08;100.00
50380;BME280;37474;59.468;18.040;2023-11-21T06:11:14;102100.03;;;-0.15;100.00
50380;BME280;37474;59.468;18.040;2023-11-21T06:13:43;102112.88;;;-0.06;100.00
50380;BME280;37474;59.468;18.040;2023-11-21T06:16:11;102105.13;;;-0.14;100.00
50380;BME280;37474;59.468;18.040;2023-11-21T06:18:43;102101.66;;;-0.19;100.00
50380;BME280;37474;59.468;18.040;2023-11-21T06:21:11;102120.50;;;-0.09;100.00
50380;BME280;37474;59.468;18.040;2023-11-21T06:23:41;102125.63;;;-0.06;100.00
50380;BME280;37474;59.468;18.040;2023-11-21T06:26:09;102137.56;;;-0.05;100.00
50380;BME280;37474;59.468;18.040;2023-11-21T06:28:38;102136.66;;;-0.09;100.00
50380;BME280;37474;59.468;18.040;2023-11-21T06:31:06;102137.50;;;-0.08;100.00
50380;BME280;37474;59.468;18.040;2023-11-21T06:33:34;102140.00;;;-0.11;100.00
50380;BME280;37474;59.468;18.040;2023-11-21T06:36:02;102142.47;;;-0.17;100.00
50380;BME280;37474;59.468;18.040;2023-11-21T06:38:31;102144.19;;;-0.16;100.00
50380;BME280;37474;59.468;18.040;2023-11-21T06:41:00;102137.31;;;-0.20;100.00
50380;BME280;37474;59.468;18.040;2023-11-21T06:43:31;102147.53;;;-0.20;100.00
50380;BME280;37474;59.468;18.040;2023-11-21T06:45:59;102144.97;;;-0.22;100.00
50380;BME280;37474;59.468;18.040;2023-11-21T06:48:27;102150.19;;;-0.13;100.00
50380;BME280;37474;59.468;18.040;2023-11-21T06:50:57;102151.84;;;-0.15;100.00
50380;BME280;37474;59.468;18.040;2023-11-21T06:53:25;102137.25;;;-0.27;100.00
50380;BME280;37474;59.468;18.040;2023-11-21T06:55:53;102153.41;;;-0.23;100.00
50380;BME280;37474;59.468;18.040;2023-11-21T06:58:22;102157.66;;;-0.23;100.00
50380;BME280;37474;59.468;18.040;2023-11-21T07:00:51;102155.06;;;-0.27;100.00
50380;BME280;37474;59.468;18.040;2023-11-21T07:03:22;102164.59;;;-0.16;100.00
50380;BME280;37474;59.468;18.040;2023-11-21T07:05:50;102169.69;;;-0.16;100.00
50380;BME280;37474;59.468;18.040;2023-11-21T07:08:18;102181.59;;;-0.15;100.00
50380;BME280;37474;59.468;18.040;2023-11-21T07:10:47;102170.41;;;-0.23;100.00
50380;BME280;37474;59.468;18.040;2023-11-21T07:13:15;102165.31;;;-0.23;100.00
50380;BME280;37474;59.468;18.040;2023-11-21T07:15:45;102178.09;;;-0.22;100.00
50380;BME280;37474;59.468;18.040;2023-11-21T07:18:13;102182.38;;;-0.18;100.00
50380;BME280;37474;59.468;18.040;2023-11-21T07:20:41;102184.97;;;-0.16;100.00
50380;BME280;37474;59.468;18.040;2023-11-21T07:23:09;102180.69;;;-0.17;100.00
50380;BME280;37474;59.468;18.040;2023-11-21T07:25:37;102189.31;;;-0.11;100.00
50380;BME280;37474;59.468;18.040;2023-11-21T07:28:05;102189.19;;;-0.17;100.00
50380;BME280;37474;59.468;18.040;2023-11-21T07:30:33;102196.16;;;-0.07;100.00
50380;BME280;37474;59.468;18.040;2023-11-21T07:33:03;102191.09;;;-0.05;100.00
50380;BME280;37474;59.468;18.040;2023-11-21T07:35:31;102199.56;;;-0.06;100.00
50380;BME280;37474;59.468;18.040;2023-11-21T07:37:59;102194.38;;;-0.12;100.00
50380;BME280;37474;59.468;18.040;2023-11-21T07:40:27;102197.00;;;-0.06;100.00
50380;BME280;37474;59.468;18.040;2023-11-21T07:42:57;102205.47;;;-0.09;100.00
50380;BME280;37474;59.468;18.040;2023-11-21T07:45:26;102203.72;;;-0.11;100.00
50380;BME280;37474;59.468;18.040;2023-11-21T07:47:55;102193.50;;;-0.14;100.00
50380;BME280;37474;59.468;18.040;2023-11-21T07:50:25;102213.97;;;-0.08;100.00
50380;BME280;37474;59.468;18.040;2023-11-21T07:52:53;102190.94;;;-0.14;100.00
50380;BME280;37474;59.468;18.040;2023-11-21T07:55:21;102196.03;;;-0.14;100.00
50380;BME280;37474;59.468;18.040;2023-11-21T07:57:51;102208.03;;;-0.09;100.00
50380;BME280;37474;59.468;18.040;2023-11-21T08:00:20;102209.75;;;-0.08;100.00
50380;BME280;37474;59.468;18.040;2023-11-21T08:02:48;102207.94;;;-0.15;100.00
50380;BME280;37474;59.468;18.040;2023-11-21T08:05:16;102217.28;;;-0.15;100.00
50380;BME280;37474;59.468;18.040;2023-11-21T08:07:55;102214.66;;;-0.18;100.00
50380;BME280;37474;59.468;18.040;2023-11-21T08:10:23;102226.63;;;-0.16;100.00
50380;BME280;37474;59.468;18.040;2023-11-21T08:12:51;102231.66;;;-0.19;100.00
50380;BME280;37474;59.468;18.040;2023-11-21T08:15:20;102221.44;;;-0.20;100.00
50380;BME280;37474;59.468;18.040;2023-11-21T08:17:48;102233.41;;;-0.16;100.00
50380;BME280;37474;59.468;18.040;2023-11-21T08:20:16;102227.31;;;-0.24;100.00
50380;BME280;37474;59.468;18.040;2023-11-21T08:22:45;102235.97;;;-0.16;100.00
50380;BME280;37474;59.468;18.040;2023-11-21T08:25:16;102237.66;;;-0.15;100.00
50380;BME280;37474;59.468;18.040;2023-11-21T08:27:47;102231.53;;;-0.27;100.00
50380;BME280;37474;59.468;18.040;2023-11-21T08:30:15;102251.09;;;-0.25;100.00
50380;BME280;37474;59.468;18.040;2023-11-21T08:32:43;102255.44;;;-0.20;100.00
50380;BME280;37474;59.468;18.040;2023-11-21T08:35:11;102256.31;;;-0.18;100.00
50380;BME280;37474;59.468;18.040;2023-11-21T08:37:40;102260.63;;;-0.15;100.00
50380;BME280;37474;59.468;18.040;2023-11-21T08:40:09;102258.09;;;-0.12;100.00
50380;BME280;37474;59.468;18.040;2023-11-21T08:42:40;102259.06;;;-0.06;100.00
50380;BME280;37474;59.468;18.040;2023-11-21T08:45:09;102262.50;;;-0.04;100.00
50380;BME280;37474;59.468;18.040;2023-11-21T08:47:37;102249.56;;;-0.14;100.00
50380;BME280;37474;59.468;18.040;2023-11-21T08:50:07;102259.78;;;-0.13;100.00
50380;BME280;37474;59.468;18.040;2023-11-21T08:52:35;102266.69;;;-0.07;100.00
50380;BME280;37474;59.468;18.040;2023-11-21T08:55:04;102267.44;;;-0.11;100.00
50380;BME280;37474;59.468;18.040;2023-11-21T08:57:34;102264.88;;;-0.14;100.00
50380;BME280;37474;59.468;18.040;2023-11-21T09:00:05;102280.34;;;-0.05;100.00
50380;BME280;37474;59.468;18.040;2023-11-21T09:02:38;102284.44;;;-0.12;100.00
50380;BME280;37474;59.468;18.040;2023-11-21T09:05:09;102285.47;;;-0.02;100.00
50380;BME280;37474;59.468;18.040;2023-11-21T09:07:39;102293.19;;;0.03;100.00
50380;BME280;37474;59.468;18.040;2023-11-21T09:10:08;102296.59;;;0.02;100.00
50380;BME280;37474;59.468;18.040;2023-11-21T09:12:37;102291.50;;;0.03;100.00
50380;BME280;37474;59.468;18.040;2023-11-21T09:15:08;102288.94;;;0.02;100.00
50380;BME280;37474;59.468;18.040;2023-11-21T09:17:38;102295.75;;;0.04;100.00
50380;BME280;37474;59.468;18.040;2023-11-21T09:20:07;102283.81;;;0.00;100.00
50380;BME280;37474;59.468;18.040;2023-11-21T09:22:37;102294.13;;;0.06;100.00
50380;BME280;37474;59.468;18.040;2023-11-21T09:25:05;102293.28;;;0.07;100.00
50380;BME280;37474;59.468;18.040;2023-11-21T09:27:35;102300.84;;;0.03;100.00
50380;BME280;37474;59.468;18.040;2023-11-21T09:30:04;102302.53;;;0.02;100.00
50380;BME280;37474;59.468;18.040;2023-11-21T09:32:37;102300.03;;;0.05;100.00
50380;BME280;37474;59.468;18.040;2023-11-21T09:35:08;102297.38;;;-0.01;100.00
50380;BME280;37474;59.468;18.040;2023-11-21T09:37:36;102306.13;;;0.13;100.00
50380;BME280;37474;59.468;18.040;2023-11-21T09:40:10;102305.97;;;0.04;100.00
50380;BME280;37474;59.468;18.040;2023-11-21T09:42:44;102309.38;;;0.05;100.00
50380;BME280;37474;59.468;18.040;2023-11-21T09:45:18;102304.91;;;-0.07;100.00
50380;BME280;37474;59.468;18.040;2023-11-21T09:47:52;102317.66;;;-0.07;100.00
50380;BME280;37474;59.468;18.040;2023-11-21T09:50:20;102314.19;;;-0.12;100.00
50380;BME280;37474;59.468;18.040;2023-11-21T09:52:55;102313.19;;;-0.20;100.00
50380;BME280;37474;59.468;18.040;2023-11-21T09:55:27;102322.84;;;-0.03;100.00
50380;BME280;37474;59.468;18.040;2023-11-21T09:57:56;102312.38;;;-0.18;100.00
50380;BME280;37474;59.468;18.040;2023-11-21T10:00:25;102319.34;;;-0.09;100.00
50380;BME280;37474;59.468;18.040;2023-11-21T10:02:57;102320.94;;;-0.16;100.00
50380;BME280;37474;59.468;18.040;2023-11-21T10:05:26;102315.84;;;-0.16;100.00
50380;BME280;37474;59.468;18.040;2023-11-21T10:07:56;102317.69;;;-0.06;100.00
50380;BME280;37474;59.468;18.040;2023-11-21T10:10:25;102333.03;;;-0.04;100.00
50380;BME280;37474;59.468;18.040;2023-11-21T10:12:57;102338.88;;;-0.10;100.00
50380;BME280;37474;59.468;18.040;2023-11-21T10:15:29;102338.06;;;-0.07;100.00
50380;BME280;37474;59.468;18.040;2023-11-21T10:18:07;102347.38;;;-0.09;100.00
50380;BME280;37474;59.468;18.040;2023-11-21T10:20:36;102345.69;;;-0.09;100.00
50380;BME280;37474;59.468;18.040;2023-11-21T10:23:05;102343.13;;;-0.10;100.00
50380;BME280;37474;59.468;18.040;2023-11-21T10:25:34;102337.19;;;-0.09;100.00
50380;BME280;37474;59.468;18.040;2023-11-21T10:28:04;102344.84;;;-0.09;100.00
50380;BME280;37474;59.468;18.040;2023-11-21T10:30:34;102343.06;;;-0.12;100.00
50380;BME280;37474;59.468;18.040;2023-11-21T10:33:05;102346.56;;;-0.08;100.00
50380;BME280;37474;59.468;18.040;2023-11-21T10:35:45;102352.47;;;-0.09;100.00
50380;BME280;37474;59.468;18.040;2023-11-21T10:38:15;102342.28;;;-0.11;100.00
50380;BME280;37474;59.468;18.040;2023-11-21T10:40:45;102346.53;;;-0.10;100.00
50380;BME280;37474;59.468;18.040;2023-11-21T10:43:13;102349.91;;;-0.11;100.00
50380;BME280;37474;59.468;18.040;2023-11-21T10:45:43;102354.28;;;-0.04;100.00
50380;BME280;37474;59.468;18.040;2023-11-21T10:48:13;102357.69;;;-0.05;100.00
50380;BME280;37474;59.468;18.040;2023-11-21T10:50:43;102354.31;;;-0.02;100.00
50380;BME280;37474;59.468;18.040;2023-11-21T10:53:12;102353.47;;;-0.01;100.00
50380;BME280;37474;59.468;18.040;2023-11-21T10:55:40;102353.34;;;-0.07;100.00
50380;BME280;37474;59.468;18.040;2023-11-21T10:58:10;102360.34;;;0.03;100.00
50380;BME280;37474;59.468;18.040;2023-11-21T11:00:41;102357.88;;;0.08;100.00
50380;BME280;37474;59.468;18.040;2023-11-21T11:03:14;102355.16;;;-0.02;100.00
50380;BME280;37474;59.468;18.040;2023-11-21T11:05:44;102356.84;;;-0.02;100.00
50380;BME280;37474;59.468;18.040;2023-11-21T11:08:21;102379.88;;;0.03;100.00
50380;BME280;37474;59.468;18.040;2023-11-21T11:10:54;102376.31;;;-0.06;100.00
50380;BME280;37474;59.468;18.040;2023-11-21T11:13:23;102372.03;;;-0.10;100.00
50380;BME280;37474;59.468;18.040;2023-11-21T11:15:58;102380.72;;;0.02;100.00
50380;BME280;37474;59.468;18.040;2023-11-21T11:18:30;102375.44;;;-0.08;100.00
50380;BME280;37474;59.468;18.040;2023-11-21T11:21:06;102384.81;;;-0.07;100.00
50380;BME280;37474;59.468;18.040;2023-11-21T11:23:49;102371.91;;;-0.16;100.00
50380;BME280;37474;59.468;18.040;2023-11-21T11:26:30;102377.13;;;-0.08;100.00
50380;BME280;37474;59.468;18.040;2023-11-21T11:29:08;102382.34;;;-0.02;100.00
50380;BME280;37474;59.468;18.040;2023-11-21T11:31:48;102396.88;;;0.01;100.00
50380;BME280;37474;59.468;18.040;2023-11-21T11:34:25;102395.16;;;0.01;100.00
50380;BME280;37474;59.468;18.040;2023-11-21T11:37:00;102399.53;;;0.08;100.00
50380;BME280;37474;59.468;18.040;2023-11-21T11:39:30;102399.66;;;0.14;100.00
50380;BME280;37474;59.468;18.040;2023-11-21T11:41:59;102408.31;;;0.22;100.00
50380;BME280;37474;59.468;18.040;2023-11-21T11:44:47;102410.88;;;0.24;100.00
50380;BME280;37474;59.468;18.040;2023-11-21T11:47:23;102420.28;;;0.26;100.00
50380;BME280;37474;59.468;18.040;2023-11-21T11:50:03;102405.81;;;0.27;100.00
50380;BME280;37474;59.468;18.040;2023-11-21T11:52:35;102416.09;;;0.30;100.00
50380;BME280;37474;59.468;18.040;2023-11-21T11:55:05;102419.41;;;0.24;100.00
50380;BME280;37474;59.468;18.040;2023-11-21T11:57:34;102404.56;;;0.05;100.00
50380;BME280;37474;59.468;18.040;2023-11-21T12:00:13;102405.47;;;0.07;100.00
50380;BME280;37474;59.468;18.040;2023-11-21T12:02:48;102419.81;;;0.01;100.00
50380;BME280;37474;59.468;18.040;2023-11-21T12:05:19;102412.22;;;0.05;100.00
50380;BME280;37474;59.468;18.040;2023-11-21T12:07:49;102424.97;;;0.50;100.00
50380;BME280;37474;59.468;18.040;2023-11-21T12:10:21;102424.84;;;0.96;100.00
50380;BME280;37474;59.468;18.040;2023-11-21T12:12:52;102433.69;;;1.18;100.00
50380;BME280;37474;59.468;18.040;2023-11-21T12:15:21;102408.94;;;1.15;100.00
50380;BME280;37474;59.468;18.040;2023-11-21T12:17:50;102421.94;;;1.30;100.00
50380;BME280;37474;59.468;18.040;2023-11-21T12:20:21;102436.00;;;1.62;100.00
50380;BME280;37474;59.468;18.040;2023-11-21T12:22:50;102446.19;;;1.60;100.00
50380;BME280;37474;59.468;18.040;2023-11-21T12:25:20;102453.84;;;2.31;100.00
50380;BME280;37474;59.468;18.040;2023-11-21T12:27:50;102446.66;;;2.86;100.00
50380;BME280;37474;59.468;18.040;2023-11-21T12:30:20;102441.66;;;3.02;100.00
50380;BME280;37474;59.468;18.040;2023-11-21T12:32:50;102426.09;;;2.74;97.12
50380;BME280;37474;59.468;18.040;2023-11-21T12:35:22;102453.59;;;2.10;98.47
50380;BME280;37474;59.468;18.040;2023-11-21T12:37:52;102458.38;;;1.79;100.00
50380;BME280;37474;59.468;18.040;2023-11-21T12:40:20;102453.06;;;1.64;100.00
50380;BME280;37474;59.468;18.040;2023-11-21T12:42:51;102443.31;;;2.02;100.00